sensor_id;sensor_type;location;lat;lon;timestamp;pressure;altitude;pressure_sealevel;temperature
22269;BMP280;11303;50.772;19.670;2022-10-16T00:01:30;99182.28;;;12.62
22269;BMP280;11303;50.772;19.670;2022-10-16T00:03:31;99188.44;;;12.56
22269;BMP280;11303;50.772;19.670;2022-10-16T00:05:38;99189.28;;;12.49
22269;BMP280;11303;50.772;19.670;2022-10-16T00:07:39;99193.09;;;12.45
22269;BMP280;11303;50.772;19.670;2022-10-16T00:09:41;99193.91;;;12.42
22269;BMP280;11303;50.772;19.670;2022-10-16T00:11:42;99201.91;;;12.38
22269;BMP280;11303;50.772;19.670;2022-10-16T00:13:45;99196.56;;;12.38
22269;BMP280;11303;50.772;19.670;2022-10-16T00:15:47;99201.56;;;12.36
22269;BMP280;11303;50.772;19.670;2022-10-16T00:17:49;99201.56;;;12.36
22269;BMP280;11303;50.772;19.670;2022-10-16T00:19:50;99199.31;;;12.35
22269;BMP280;11303;50.772;19.670;2022-10-16T00:21:52;99203.88;;;12.34
22269;BMP280;11303;50.772;19.670;2022-10-16T00:23:59;99198.53;;;12.34
22269;BMP280;11303;50.772;19.670;2022-10-16T00:26:04;99203.88;;;12.34
22269;BMP280;11303;50.772;19.670;2022-10-16T00:28:06;99211.84;;;12.31
22269;BMP280;11303;50.772;19.670;2022-10-16T00:30:08;99200.13;;;12.25
22269;BMP280;11303;50.772;19.670;2022-10-16T00:32:09;99194.88;;;12.18
22269;BMP280;11303;50.772;19.670;2022-10-16T00:34:11;99201.09;;;12.08
22269;BMP280;11303;50.772;19.670;2022-10-16T00:36:15;99201.88;;;12.01
22269;BMP280;11303;50.772;19.670;2022-10-16T00:38:17;99203.47;;;11.95
22269;BMP280;11303;50.772;19.670;2022-10-16T00:40:18;99203.03;;;11.97
22269;BMP280;11303;50.772;19.670;2022-10-16T00:42:19;99202.25;;;12.03
22269;BMP280;11303;50.772;19.670;2022-10-16T00:44:50;99191.91;;;12.12
22269;BMP280;11303;50.772;19.670;2022-10-16T00:46:53;99190.34;;;12.18
22269;BMP280;11303;50.772;19.670;2022-10-16T00:49:05;99189.91;;;12.23
22269;BMP280;11303;50.772;19.670;2022-10-16T00:51:07;99196.34;;;12.26
22269;BMP280;11303;50.772;19.670;2022-10-16T00:53:10;99195.56;;;12.29
22269;BMP280;11303;50.772;19.670;2022-10-16T00:55:12;99198.94;;;12.33
22269;BMP280;11303;50.772;19.670;2022-10-16T00:57:14;99198.94;;;12.33
22269;BMP280;11303;50.772;19.670;2022-10-16T00:59:20;99202.34;;;12.33
22269;BMP280;11303;50.772;19.670;2022-10-16T01:01:24;99203.88;;;12.31
22269;BMP280;11303;50.772;19.670;2022-10-16T01:03:34;99213.78;;;12.30
22269;BMP280;11303;50.772;19.670;2022-10-16T01:05:47;99216.03;;;12.32
22269;BMP280;11303;50.772;19.670;2022-10-16T01:08:08;99216.03;;;12.32
22269;BMP280;11303;50.772;19.670;2022-10-16T01:12:33;99214.13;;;12.32
22269;BMP280;11303;50.772;19.670;2022-10-16T01:14:46;99216.03;;;12.32
22269;BMP280;11303;50.772;19.670;2022-10-16T01:16:53;99222.56;;;12.27
22269;BMP280;11303;50.772;19.670;2022-10-16T01:19:09;99228.69;;;12.21
22269;BMP280;11303;50.772;19.670;2022-10-16T01:21:36;99225.31;;;12.13
22269;BMP280;11303;50.772;19.670;2022-10-16T01:28:34;99217.97;;;11.87
22269;BMP280;11303;50.772;19.670;2022-10-16T01:30:37;99225.63;;;11.78
22269;BMP280;11303;50.772;19.670;2022-10-16T01:32:43;99223.44;;;11.66
22269;BMP280;11303;50.772;19.670;2022-10-16T01:35:10;99229.59;;;11.53
22269;BMP280;11303;50.772;19.670;2022-10-16T01:37:16;99231.16;;;11.43
22269;BMP280;11303;50.772;19.670;2022-10-16T01:39:22;99232.34;;;11.35
22269;BMP280;11303;50.772;19.670;2022-10-16T01:41:28;99235.03;;;11.28
22269;BMP280;11303;50.772;19.670;2022-10-16T01:43:35;99231.25;;;11.26
22269;BMP280;11303;50.772;19.670;2022-10-16T01:45:37;99228.19;;;11.24
22269;BMP280;11303;50.772;19.670;2022-10-16T01:47:40;99221.41;;;11.19
22269;BMP280;11303;50.772;19.670;2022-10-16T01:49:43;99234.34;;;11.14
22269;BMP280;11303;50.772;19.670;2022-10-16T01:51:49;99230.91;;;11.13
22269;BMP280;11303;50.772;19.670;2022-10-16T01:53:55;99226.03;;;11.08
22269;BMP280;11303;50.772;19.670;2022-10-16T01:56:00;99223.78;;;11.00
22269;BMP280;11303;50.772;19.670;2022-10-16T01:58:05;99228.66;;;11.01
22269;BMP280;11303;50.772;19.670;2022-10-16T02:00:11;99234.75;;;10.98
22269;BMP280;11303;50.772;19.670;2022-10-16T02:02:15;99242.72;;;10.98
22269;BMP280;11303;50.772;19.670;2022-10-16T02:04:28;99235.91;;;10.97
22269;BMP280;11303;50.772;19.670;2022-10-16T02:06:30;99238.59;;;10.90
22269;BMP280;11303;50.772;19.670;2022-10-16T02:08:33;99229.50;;;10.88
22269;BMP280;11303;50.772;19.670;2022-10-16T02:10:36;99237.09;;;10.82
22269;BMP280;11303;50.772;19.670;2022-10-16T02:12:41;99228.38;;;10.78
22269;BMP280;11303;50.772;19.670;2022-10-16T02:14:43;99236.38;;;10.75
22269;BMP280;11303;50.772;19.670;2022-10-16T02:16:46;99241.31;;;10.69
22269;BMP280;11303;50.772;19.670;2022-10-16T02:18:48;99238.66;;;10.69
22269;BMP280;11303;50.772;19.670;2022-10-16T02:21:02;99235.63;;;10.64
22269;BMP280;11303;50.772;19.670;2022-10-16T02:23:08;99250.41;;;10.54
22269;BMP280;11303;50.772;19.670;2022-10-16T02:25:21;99241.34;;;10.45
22269;BMP280;11303;50.772;19.670;2022-10-16T02:29:47;99247.41;;;10.38
22269;BMP280;11303;50.772;19.670;2022-10-16T02:31:55;99249.69;;;10.36
22269;BMP280;11303;50.772;19.670;2022-10-16T02:33:58;99242.50;;;10.33
22269;BMP280;11303;50.772;19.670;2022-10-16T02:36:00;99255.00;;;10.36
22269;BMP280;11303;50.772;19.670;2022-10-16T02:38:03;99262.56;;;10.34
22269;BMP280;11303;50.772;19.670;2022-10-16T02:40:06;99249.66;;;10.33
22269;BMP280;11303;50.772;19.670;2022-10-16T02:42:12;99248.56;;;10.34
22269;BMP280;11303;50.772;19.670;2022-10-16T02:44:14;99255.75;;;10.33
22269;BMP280;11303;50.772;19.670;2022-10-16T02:46:16;99253.84;;;10.37
22269;BMP280;11303;50.772;19.670;2022-10-16T02:48:18;99256.50;;;10.41
22269;BMP280;11303;50.772;19.670;2022-10-16T02:50:20;99258.78;;;10.42
22269;BMP280;11303;50.772;19.670;2022-10-16T02:52:22;99261.03;;;10.40
22269;BMP280;11303;50.772;19.670;2022-10-16T02:54:24;99252.69;;;10.42
22269;BMP280;11303;50.772;19.670;2022-10-16T02:56:25;99266.34;;;10.47
22269;BMP280;11303;50.772;19.670;2022-10-16T02:58:27;99261.41;;;10.49
22269;BMP280;11303;50.772;19.670;2022-10-16T03:00:29;99256.50;;;10.51
22269;BMP280;11303;50.772;19.670;2022-10-16T03:02:30;99259.88;;;10.55
22269;BMP280;11303;50.772;19.670;2022-10-16T03:04:31;99262.56;;;10.52
22269;BMP280;11303;50.772;19.670;2022-10-16T03:06:34;99259.91;;;10.48
22269;BMP280;11303;50.772;19.670;2022-10-16T03:08:35;99264.81;;;10.46
22269;BMP280;11303;50.772;19.670;2022-10-16T03:10:37;99257.25;;;10.48
22269;BMP280;11303;50.772;19.670;2022-10-16T03:12:38;99270.50;;;10.48
22269;BMP280;11303;50.772;19.670;2022-10-16T03:14:40;99264.47;;;10.44
22269;BMP280;11303;50.772;19.670;2022-10-16T03:16:41;99263.31;;;10.45
22269;BMP280;11303;50.772;19.670;2022-10-16T03:18:43;99271.66;;;10.44
22269;BMP280;11303;50.772;19.670;2022-10-16T03:20:44;99272.75;;;10.46
22269;BMP280;11303;50.772;19.670;2022-10-16T03:22:46;99267.13;;;10.44
22269;BMP280;11303;50.772;19.670;2022-10-16T03:24:47;99263.31;;;10.42
22269;BMP280;11303;50.772;19.670;2022-10-16T03:26:49;99259.53;;;10.39
22269;BMP280;11303;50.772;19.670;2022-10-16T03:28:50;99268.63;;;10.38
22269;BMP280;11303;50.772;19.670;2022-10-16T03:30:52;99268.63;;;10.38
22269;BMP280;11303;50.772;19.670;2022-10-16T03:32:54;99268.63;;;10.38
22269;BMP280;11303;50.772;19.670;2022-10-16T03:34:55;99271.28;;;10.38
22269;BMP280;11303;50.772;19.670;2022-10-16T03:36:58;99277.34;;;10.42
22269;BMP280;11303;50.772;19.670;2022-10-16T03:38:59;99275.41;;;10.46
22269;BMP280;11303;50.772;19.670;2022-10-16T03:41:01;99279.59;;;10.54
22269;BMP280;11303;50.772;19.670;2022-10-16T03:43:02;99283.00;;;10.58
22269;BMP280;11303;50.772;19.670;2022-10-16T03:45:04;99284.50;;;10.66
22269;BMP280;11303;50.772;19.670;2022-10-16T03:47:06;99289.44;;;10.71
22269;BMP280;11303;50.772;19.670;2022-10-16T03:49:08;99294.34;;;10.76
22269;BMP280;11303;50.772;19.670;2022-10-16T03:51:10;99288.25;;;10.79
22269;BMP280;11303;50.772;19.670;2022-10-16T03:53:11;99279.56;;;10.82
22269;BMP280;11303;50.772;19.670;2022-10-16T03:55:13;99280.72;;;10.85
22269;BMP280;11303;50.772;19.670;2022-10-16T03:57:14;99282.97;;;10.86
22269;BMP280;11303;50.772;19.670;2022-10-16T03:59:16;99285.97;;;10.88
22269;BMP280;11303;50.772;19.670;2022-10-16T04:01:17;99295.84;;;10.88
22269;BMP280;11303;50.772;19.670;2022-10-16T04:03:19;99293.56;;;10.86
22269;BMP280;11303;50.772;19.670;2022-10-16T04:05:21;99293.22;;;10.84
22269;BMP280;11303;50.772;19.670;2022-10-16T04:07:22;99289.81;;;10.80
22269;BMP280;11303;50.772;19.670;2022-10-16T04:09:24;99291.69;;;10.76
22269;BMP280;11303;50.772;19.670;2022-10-16T04:11:26;99294.38;;;10.69
22269;BMP280;11303;50.772;19.670;2022-10-16T04:13:27;99302.69;;;10.64
22269;BMP280;11303;50.772;19.670;2022-10-16T04:15:29;99293.25;;;10.56
22269;BMP280;11303;50.772;19.670;2022-10-16T04:17:30;99293.22;;;10.49
22269;BMP280;11303;50.772;19.670;2022-10-16T04:19:32;99298.94;;;10.44
22269;BMP280;11303;50.772;19.670;2022-10-16T04:21:33;99297.78;;;10.42
22269;BMP280;11303;50.772;19.670;2022-10-16T04:23:35;99299.66;;;10.34
22269;BMP280;11303;50.772;19.670;2022-10-16T04:25:36;99302.72;;;10.26
22269;BMP280;11303;50.772;19.670;2022-10-16T04:27:38;99302.72;;;10.19
22269;BMP280;11303;50.772;19.670;2022-10-16T04:29:45;99301.19;;;10.11
22269;BMP280;11303;50.772;19.670;2022-10-16T04:31:46;99303.44;;;10.05
22269;BMP280;11303;50.772;19.670;2022-10-16T04:33:48;99298.91;;;10.02
22269;BMP280;11303;50.772;19.670;2022-10-16T04:35:56;99306.81;;;9.99
22269;BMP280;11303;50.772;19.670;2022-10-16T04:37:58;99306.44;;;9.97
22269;BMP280;11303;50.772;19.670;2022-10-16T04:39:59;99307.59;;;9.99
22269;BMP280;11303;50.772;19.670;2022-10-16T04:42:01;99306.09;;;10.02
22269;BMP280;11303;50.772;19.670;2022-10-16T04:44:02;99309.50;;;10.06
22269;BMP280;11303;50.772;19.670;2022-10-16T04:46:04;99312.16;;;10.09
22269;BMP280;11303;50.772;19.670;2022-10-16T04:48:06;99308.75;;;10.16
22269;BMP280;11303;50.772;19.670;2022-10-16T04:50:08;99305.72;;;10.17
22269;BMP280;11303;50.772;19.670;2022-10-16T04:52:09;99304.22;;;10.16
22269;BMP280;11303;50.772;19.670;2022-10-16T04:54:11;99313.28;;;10.15
22269;BMP280;11303;50.772;19.670;2022-10-16T04:56:12;99311.03;;;10.17
22269;BMP280;11303;50.772;19.670;2022-10-16T04:58:14;99307.25;;;10.15
22269;BMP280;11303;50.772;19.670;2022-10-16T05:00:16;99306.09;;;10.16
22269;BMP280;11303;50.772;19.670;2022-10-16T05:02:18;99310.25;;;10.17
22269;BMP280;11303;50.772;19.670;2022-10-16T05:04:19;99308.75;;;10.16
22269;BMP280;11303;50.772;19.670;2022-10-16T05:06:21;99312.19;;;10.16
22269;BMP280;11303;50.772;19.670;2022-10-16T05:08:22;99311.81;;;10.18
22269;BMP280;11303;50.772;19.670;2022-10-16T05:10:24;99303.47;;;10.19
22269;BMP280;11303;50.772;19.670;2022-10-16T05:12:25;99315.97;;;10.26
22269;BMP280;11303;50.772;19.670;2022-10-16T05:14:27;99302.31;;;10.34
22269;BMP280;11303;50.772;19.670;2022-10-16T05:16:29;99309.16;;;10.42
22269;BMP280;11303;50.772;19.670;2022-10-16T05:18:31;99317.09;;;10.49
22269;BMP280;11303;50.772;19.670;2022-10-16T05:20:33;99307.28;;;10.53
22269;BMP280;11303;50.772;19.670;2022-10-16T05:22:34;99314.06;;;10.61
22269;BMP280;11303;50.772;19.670;2022-10-16T05:24:36;99311.03;;;10.66
22269;BMP280;11303;50.772;19.670;2022-10-16T05:26:37;99308.00;;;10.71
22269;BMP280;11303;50.772;19.670;2022-10-16T05:28:39;99305.72;;;10.77
22269;BMP280;11303;50.772;19.670;2022-10-16T05:30:40;99301.94;;;10.81
22269;BMP280;11303;50.772;19.670;2022-10-16T05:32:46;99307.59;;;10.87
22269;BMP280;11303;50.772;19.670;2022-10-16T05:34:47;99311.72;;;10.98
22269;BMP280;11303;50.772;19.670;2022-10-16T05:36:49;99317.78;;;11.09
22269;BMP280;11303;50.772;19.670;2022-10-16T05:38:51;99305.16;;;11.34
22269;BMP280;11303;50.772;19.670;2022-10-16T05:40:53;99301.94;;;11.74
22269;BMP280;11303;50.772;19.670;2022-10-16T05:42:55;99304.31;;;12.16
22269;BMP280;11303;50.772;19.670;2022-10-16T05:44:57;99310.06;;;12.55
22269;BMP280;11303;50.772;19.670;2022-10-16T05:46:58;99314.69;;;12.88
22269;BMP280;11303;50.772;19.670;2022-10-16T05:49:00;99321.47;;;13.26
22269;BMP280;11303;50.772;19.670;2022-10-16T05:51:06;99320.41;;;13.50
22269;BMP280;11303;50.772;19.670;2022-10-16T05:53:10;99334.53;;;13.74
22269;BMP280;11303;50.772;19.670;2022-10-16T05:55:12;99336.63;;;13.89
22269;BMP280;11303;50.772;19.670;2022-10-16T05:57:14;99343.06;;;14.15
22269;BMP280;11303;50.772;19.670;2022-10-16T05:59:15;99345.13;;;14.30
22269;BMP280;11303;50.772;19.670;2022-10-16T06:01:18;99337.88;;;14.08
22269;BMP280;11303;50.772;19.670;2022-10-16T06:03:20;99339.88;;;14.00
22269;BMP280;11303;50.772;19.670;2022-10-16T06:05:22;99348.84;;;13.87
22269;BMP280;11303;50.772;19.670;2022-10-16T06:07:23;99347.75;;;13.84
22269;BMP280;11303;50.772;19.670;2022-10-16T06:09:26;99343.56;;;13.83
22269;BMP280;11303;50.772;19.670;2022-10-16T06:11:30;99345.72;;;13.65
22269;BMP280;11303;50.772;19.670;2022-10-16T06:13:31;99346.34;;;13.76
22269;BMP280;11303;50.772;19.670;2022-10-16T06:15:33;99357.25;;;13.85
22269;BMP280;11303;50.772;19.670;2022-10-16T06:17:34;99364.47;;;14.11
22269;BMP280;11303;50.772;19.670;2022-10-16T06:19:36;99374.47;;;14.53
22269;BMP280;11303;50.772;19.670;2022-10-16T06:21:37;99363.75;;;14.57
22269;BMP280;11303;50.772;19.670;2022-10-16T06:23:39;99382.38;;;14.37
22269;BMP280;11303;50.772;19.670;2022-10-16T06:25:41;99377.72;;;14.41
22269;BMP280;11303;50.772;19.670;2022-10-16T06:27:42;99380.19;;;14.55
22269;BMP280;11303;50.772;19.670;2022-10-16T06:29:44;99391.34;;;14.70
22269;BMP280;11303;50.772;19.670;2022-10-16T06:31:46;99393.25;;;14.92
22269;BMP280;11303;50.772;19.670;2022-10-16T06:33:51;99388.38;;;15.26
22269;BMP280;11303;50.772;19.670;2022-10-16T06:35:52;99385.41;;;15.40
22269;BMP280;11303;50.772;19.670;2022-10-16T06:37:54;99383.84;;;15.43
22269;BMP280;11303;50.772;19.670;2022-10-16T06:39:55;99384.34;;;15.38
22269;BMP280;11303;50.772;19.670;2022-10-16T06:41:57;99381.66;;;15.38
22269;BMP280;11303;50.772;19.670;2022-10-16T06:44:07;99389.75;;;15.34
22269;BMP280;11303;50.772;19.670;2022-10-16T06:46:10;99378.72;;;15.32
22269;BMP280;11303;50.772;19.670;2022-10-16T06:48:12;99382.72;;;15.40
22269;BMP280;11303;50.772;19.670;2022-10-16T06:50:14;99384.78;;;15.52
22269;BMP280;11303;50.772;19.670;2022-10-16T06:52:15;99383.38;;;15.99
22269;BMP280;11303;50.772;19.670;2022-10-16T06:54:17;99380.53;;;16.38
22269;BMP280;11303;50.772;19.670;2022-10-16T06:56:24;99385.66;;;16.61
22269;BMP280;11303;50.772;19.670;2022-10-16T06:58:26;99377.69;;;16.86
22269;BMP280;11303;50.772;19.670;2022-10-16T07:00:28;99381.38;;;16.92
22269;BMP280;11303;50.772;19.670;2022-10-16T07:02:29;99387.69;;;17.14
22269;BMP280;11303;50.772;19.670;2022-10-16T07:04:31;99386.63;;;17.24
22269;BMP280;11303;50.772;19.670;2022-10-16T07:06:33;99382.13;;;17.46
22269;BMP280;11303;50.772;19.670;2022-10-16T07:08:37;99391.75;;;17.31
22269;BMP280;11303;50.772;19.670;2022-10-16T07:10:39;99398.13;;;17.99
22269;BMP280;11303;50.772;19.670;2022-10-16T07:12:41;99383.84;;;18.36
22269;BMP280;11303;50.772;19.670;2022-10-16T07:14:42;99387.38;;;18.67
22269;BMP280;11303;50.772;19.670;2022-10-16T07:16:44;99385.16;;;19.09
22269;BMP280;11303;50.772;19.670;2022-10-16T07:18:46;99391.13;;;18.91
22269;BMP280;11303;50.772;19.670;2022-10-16T07:20:49;99401.09;;;19.33
22269;BMP280;11303;50.772;19.670;2022-10-16T07:22:51;99391.00;;;19.16
22269;BMP280;11303;50.772;19.670;2022-10-16T07:24:53;99387.88;;;18.75
22269;BMP280;11303;50.772;19.670;2022-10-16T07:26:54;99390.91;;;18.77
22269;BMP280;11303;50.772;19.670;2022-10-16T07:28:56;99395.88;;;18.66
22269;BMP280;11303;50.772;19.670;2022-10-16T07:31:07;99396.00;;;18.84
22269;BMP280;11303;50.772;19.670;2022-10-16T07:33:09;99397.50;;;18.63
22269;BMP280;11303;50.772;19.670;2022-10-16T07:35:10;99401.75;;;18.52
22269;BMP280;11303;50.772;19.670;2022-10-16T07:37:12;99402.75;;;19.10
22269;BMP280;11303;50.772;19.670;2022-10-16T07:39:13;99411.31;;;19.56
22269;BMP280;11303;50.772;19.670;2022-10-16T07:41:18;99400.53;;;19.87
22269;BMP280;11303;50.772;19.670;2022-10-16T07:43:20;99408.28;;;19.76
22269;BMP280;11303;50.772;19.670;2022-10-16T07:45:21;99413.19;;;19.68
22269;BMP280;11303;50.772;19.670;2022-10-16T07:47:23;99405.16;;;19.86
22269;BMP280;11303;50.772;19.670;2022-10-16T07:49:25;99421.56;;;19.70
22269;BMP280;11303;50.772;19.670;2022-10-16T07:51:27;99422.06;;;19.47
22269;BMP280;11303;50.772;19.670;2022-10-16T07:53:28;99424.78;;;19.47
22269;BMP280;11303;50.772;19.670;2022-10-16T07:55:31;99414.16;;;19.22
22269;BMP280;11303;50.772;19.670;2022-10-16T07:57:32;99414.44;;;19.16
22269;BMP280;11303;50.772;19.670;2022-10-16T07:59:34;99416.09;;;19.13
22269;BMP280;11303;50.772;19.670;2022-10-16T08:01:35;99422.88;;;19.05
22269;BMP280;11303;50.772;19.670;2022-10-16T08:03:37;99418.22;;;19.27
22269;BMP280;11303;50.772;19.670;2022-10-16T08:05:38;99424.13;;;19.74
22269;BMP280;11303;50.772;19.670;2022-10-16T08:07:40;99423.97;;;20.35
22269;BMP280;11303;50.772;19.670;2022-10-16T08:09:41;99420.66;;;20.67
22269;BMP280;11303;50.772;19.670;2022-10-16T08:11:43;99420.44;;;20.97
22269;BMP280;11303;50.772;19.670;2022-10-16T08:13:44;99431.47;;;21.17
22269;BMP280;11303;50.772;19.670;2022-10-16T08:15:46;99428.16;;;21.31
22269;BMP280;11303;50.772;19.670;2022-10-16T08:17:58;99423.72;;;21.10
22269;BMP280;11303;50.772;19.670;2022-10-16T08:20:00;99426.19;;;21.64
22269;BMP280;11303;50.772;19.670;2022-10-16T08:22:02;99425.41;;;22.19
22269;BMP280;11303;50.772;19.670;2022-10-16T08:24:03;99433.44;;;22.28
22269;BMP280;11303;50.772;19.670;2022-10-16T08:26:06;99422.81;;;22.25
22269;BMP280;11303;50.772;19.670;2022-10-16T08:28:09;99427.75;;;22.03
22269;BMP280;11303;50.772;19.670;2022-10-16T08:30:11;99412.44;;;21.53
22269;BMP280;11303;50.772;19.670;2022-10-16T08:32:13;99413.78;;;21.25
22269;BMP280;11303;50.772;19.670;2022-10-16T08:34:15;99426.13;;;21.40
22269;BMP280;11303;50.772;19.670;2022-10-16T08:36:16;99425.94;;;21.53
22269;BMP280;11303;50.772;19.670;2022-10-16T08:38:18;99420.19;;;22.16
22269;BMP280;11303;50.772;19.670;2022-10-16T08:40:23;99428.31;;;22.83
22269;BMP280;11303;50.772;19.670;2022-10-16T08:42:43;99432.19;;;23.59
22269;BMP280;11303;50.772;19.670;2022-10-16T08:47:36;99414.47;;;23.58
22269;BMP280;11303;50.772;19.670;2022-10-16T08:49:43;99414.84;;;22.74
22269;BMP280;11303;50.772;19.670;2022-10-16T08:51:49;99425.88;;;22.99
22269;BMP280;11303;50.772;19.670;2022-10-16T08:53:55;99423.91;;;23.48
22269;BMP280;11303;50.772;19.670;2022-10-16T08:55:57;99416.19;;;23.41
22269;BMP280;11303;50.772;19.670;2022-10-16T08:58:00;99419.88;;;22.81
22269;BMP280;11303;50.772;19.670;2022-10-16T09:00:12;99414.09;;;22.73
22269;BMP280;11303;50.772;19.670;2022-10-16T09:02:22;99427.53;;;22.15
22269;BMP280;11303;50.772;19.670;2022-10-16T09:04:47;99414.56;;;22.05
22269;BMP280;11303;50.772;19.670;2022-10-16T09:07:11;99423.22;;;22.09
22269;BMP280;11303;50.772;19.670;2022-10-16T09:11:40;99431.66;;;22.02
22269;BMP280;11303;50.772;19.670;2022-10-16T09:14:10;99433.69;;;21.60
22269;BMP280;11303;50.772;19.670;2022-10-16T09:16:24;99441.19;;;21.33
22269;BMP280;11303;50.772;19.670;2022-10-16T09:18:37;99451.50;;;20.93
22269;BMP280;11303;50.772;19.670;2022-10-16T09:23:22;99451.31;;;20.78
22269;BMP280;11303;50.772;19.670;2022-10-16T09:25:26;99452.53;;;20.86
22269;BMP280;11303;50.772;19.670;2022-10-16T09:27:28;99449.97;;;21.01
22269;BMP280;11303;50.772;19.670;2022-10-16T09:29:30;99457.41;;;21.65
22269;BMP280;11303;50.772;19.670;2022-10-16T09:31:31;99447.25;;;22.45
22269;BMP280;11303;50.772;19.670;2022-10-16T09:33:36;99439.66;;;23.16
22269;BMP280;11303;50.772;19.670;2022-10-16T09:35:42;99445.81;;;23.16
22269;BMP280;11303;50.772;19.670;2022-10-16T09:37:47;99452.69;;;23.31
22269;BMP280;11303;50.772;19.670;2022-10-16T09:39:51;99451.19;;;23.30
22269;BMP280;11303;50.772;19.670;2022-10-16T09:41:54;99451.81;;;23.54
22269;BMP280;11303;50.772;19.670;2022-10-16T09:43:59;99448.91;;;23.58
22269;BMP280;11303;50.772;19.670;2022-10-16T09:48:11;99456.38;;;23.83
22269;BMP280;11303;50.772;19.670;2022-10-16T09:50:24;99459.28;;;23.79
22269;BMP280;11303;50.772;19.670;2022-10-16T09:52:26;99457.03;;;23.78
22269;BMP280;11303;50.772;19.670;2022-10-16T09:54:27;99451.81;;;23.54
22269;BMP280;11303;50.772;19.670;2022-10-16T09:56:31;99445.56;;;23.48
22269;BMP280;11303;50.772;19.670;2022-10-16T09:58:37;99448.84;;;23.52
22269;BMP280;11303;50.772;19.670;2022-10-16T10:00:41;99444.53;;;24.00
22269;BMP280;11303;50.772;19.670;2022-10-16T10:02:44;99454.34;;;24.43
22269;BMP280;11303;50.772;19.670;2022-10-16T10:04:53;99456.53;;;24.59
22269;BMP280;11303;50.772;19.670;2022-10-16T10:06:56;99451.09;;;24.59
22269;BMP280;11303;50.772;19.670;2022-10-16T10:09:20;99451.13;;;24.90
22269;BMP280;11303;50.772;19.670;2022-10-16T10:11:48;99455.22;;;25.11
22269;BMP280;11303;50.772;19.670;2022-10-16T10:13:50;99452.31;;;25.62
22269;BMP280;11303;50.772;19.670;2022-10-16T10:15:52;99446.59;;;25.54
22269;BMP280;11303;50.772;19.670;2022-10-16T10:17:56;99445.19;;;25.22
22269;BMP280;11303;50.772;19.670;2022-10-16T10:20:00;99439.47;;;25.62
22269;BMP280;11303;50.772;19.670;2022-10-16T10:22:16;99444.88;;;25.57
22269;BMP280;11303;50.772;19.670;2022-10-16T10:24:19;99435.06;;;25.23
22269;BMP280;11303;50.772;19.670;2022-10-16T10:26:24;99440.09;;;24.99
22269;BMP280;11303;50.772;19.670;2022-10-16T10:28:47;99433.06;;;24.56
22269;BMP280;11303;50.772;19.670;2022-10-16T10:33:47;99443.75;;;23.26
22269;BMP280;11303;50.772;19.670;2022-10-16T10:35:59;99448.00;;;22.98
22269;BMP280;11303;50.772;19.670;2022-10-16T10:38:18;99437.72;;;22.73
22269;BMP280;11303;50.772;19.670;2022-10-16T10:40:43;99445.34;;;22.22
22269;BMP280;11303;50.772;19.670;2022-10-16T10:42:55;99447.41;;;22.27
22269;BMP280;11303;50.772;19.670;2022-10-16T10:45:21;99446.34;;;22.48
22269;BMP280;11303;50.772;19.670;2022-10-16T10:50:07;99447.97;;;22.69
22269;BMP280;11303;50.772;19.670;2022-10-16T10:54:50;99431.44;;;22.52
22269;BMP280;11303;50.772;19.670;2022-10-16T10:57:21;99439.03;;;22.25
22269;BMP280;11303;50.772;19.670;2022-10-16T11:01:55;99435.19;;;22.17
22269;BMP280;11303;50.772;19.670;2022-10-16T11:06:22;99416.31;;;22.31
22269;BMP280;11303;50.772;19.670;2022-10-16T11:08:39;99419.66;;;22.41
22269;BMP280;11303;50.772;19.670;2022-10-16T11:10:54;99415.22;;;22.67
22269;BMP280;11303;50.772;19.670;2022-10-16T11:13:09;99430.63;;;22.90
22269;BMP280;11303;50.772;19.670;2022-10-16T11:15:15;99426.06;;;23.44
22269;BMP280;11303;50.772;19.670;2022-10-16T11:17:23;99419.78;;;23.93
22269;BMP280;11303;50.772;19.670;2022-10-16T11:19:35;99429.78;;;24.01
22269;BMP280;11303;50.772;19.670;2022-10-16T11:21:50;99419.50;;;23.71
22269;BMP280;11303;50.772;19.670;2022-10-16T11:24:01;99436.94;;;23.64
22269;BMP280;11303;50.772;19.670;2022-10-16T11:26:12;99439.84;;;23.61
22269;BMP280;11303;50.772;19.670;2022-10-16T11:28:20;99438.56;;;23.76
22269;BMP280;11303;50.772;19.670;2022-10-16T11:30:39;99437.34;;;23.97
22269;BMP280;11303;50.772;19.670;2022-10-16T11:35:17;99442.75;;;24.17
22269;BMP280;11303;50.772;19.670;2022-10-16T11:37:24;99445.03;;;24.24
22269;BMP280;11303;50.772;19.670;2022-10-16T11:39:28;99434.13;;;23.99
22269;BMP280;11303;50.772;19.670;2022-10-16T11:41:37;99442.31;;;23.44
22269;BMP280;11303;50.772;19.670;2022-10-16T11:43:43;99440.00;;;23.23
22269;BMP280;11303;50.772;19.670;2022-10-16T11:45:53;99446.28;;;23.15
22269;BMP280;11303;50.772;19.670;2022-10-16T11:48:15;99445.53;;;23.00
22269;BMP280;11303;50.772;19.670;2022-10-16T11:55:39;99446.81;;;23.67
22269;BMP280;11303;50.772;19.670;2022-10-16T11:57:51;99437.75;;;23.90
22269;BMP280;11303;50.772;19.670;2022-10-16T11:59:59;99436.00;;;23.87
22269;BMP280;11303;50.772;19.670;2022-10-16T12:04:59;99442.94;;;23.54
22269;BMP280;11303;50.772;19.670;2022-10-16T12:07:08;99436.31;;;23.55
22269;BMP280;11303;50.772;19.670;2022-10-16T12:09:32;99439.00;;;23.55
22269;BMP280;11303;50.772;19.670;2022-10-16T12:11:38;99441.06;;;23.80
22269;BMP280;11303;50.772;19.670;2022-10-16T12:13:40;99450.47;;;23.64
22269;BMP280;11303;50.772;19.670;2022-10-16T12:15:42;99449.03;;;23.49
22269;BMP280;11303;50.772;19.670;2022-10-16T12:18:00;99449.63;;;23.24
22269;BMP280;11303;50.772;19.670;2022-10-16T12:22:18;99452.63;;;22.97
22269;BMP280;11303;50.772;19.670;2022-10-16T12:24:32;99452.72;;;22.88
22269;BMP280;11303;50.772;19.670;2022-10-16T12:26:41;99453.38;;;22.54
22269;BMP280;11303;50.772;19.670;2022-10-16T12:28:45;99451.47;;;22.46
22269;BMP280;11303;50.772;19.670;2022-10-16T12:30:57;99457.66;;;22.23
22269;BMP280;11303;50.772;19.670;2022-10-16T12:33:03;99452.38;;;22.05
22269;BMP280;11303;50.772;19.670;2022-10-16T12:35:18;99462.41;;;21.81